Flugplatz Blomberg-Borkhausen

Für EDVF sind keine METAR/TAF Berichte vorhanden.
Es werden die Flugwettermeldungen vom Flugplatz Buckeburg Airport in 40 km Entfernung angezeigt.

Bericht für ETHB

vom 25.01. um 22:20 UTC

Wind 4 kt aus 200°

Sichtweite 3300 m

Temperatur 0.0°C

Taupunkt 0.0°C

Luftfeuchtigkeit 100%

Luftdruck 1020 hPa

ETHB 252220Z AUTO 20004KT 3300 // ////// 00/M00 Q1020 ///
Keine Prognose (TAF) verfügbar.
Impressum